sensor_id;sensor_type;location;lat;lon;timestamp;P1;durP1;ratioP1;P2;durP2;ratioP2
23099;SDS011;53791;50.696;4.396;2023-04-23T00:01:58;6.05;;;3.35;;
23099;SDS011;53791;50.696;4.396;2023-04-23T00:04:27;4.33;;;3.33;;
23099;SDS011;53791;50.696;4.396;2023-04-23T00:06:58;7.12;;;3.98;;
23099;SDS011;53791;50.696;4.396;2023-04-23T00:09:29;9.45;;;3.62;;
23099;SDS011;53791;50.696;4.396;2023-04-23T00:11:58;4.08;;;2.87;;
23099;SDS011;53791;50.696;4.396;2023-04-23T00:14:26;5.62;;;3.55;;
23099;SDS011;53791;50.696;4.396;2023-04-23T00:16:54;4.87;;;3.37;;
23099;SDS011;53791;50.696;4.396;2023-04-23T00:19:22;5.42;;;2.80;;
23099;SDS011;53791;50.696;4.396;2023-04-23T00:21:50;5.45;;;3.25;;
23099;SDS011;53791;50.696;4.396;2023-04-23T00:24:18;4.37;;;3.20;;
23099;SDS011;53791;50.696;4.396;2023-04-23T00:26:46;4.45;;;3.67;;
23099;SDS011;53791;50.696;4.396;2023-04-23T00:29:14;6.33;;;3.58;;
23099;SDS011;53791;50.696;4.396;2023-04-23T00:31:41;5.08;;;3.33;;
23099;SDS011;53791;50.696;4.396;2023-04-23T00:34:09;3.62;;;3.00;;
23099;SDS011;53791;50.696;4.396;2023-04-23T00:36:36;3.37;;;2.92;;
23099;SDS011;53791;50.696;4.396;2023-04-23T00:39:04;4.20;;;2.47;;
23099;SDS011;53791;50.696;4.396;2023-04-23T00:41:31;4.78;;;3.10;;
23099;SDS011;53791;50.696;4.396;2023-04-23T00:44:00;3.85;;;2.90;;
23099;SDS011;53791;50.696;4.396;2023-04-23T00:46:28;2.52;;;2.08;;
23099;SDS011;53791;50.696;4.396;2023-04-23T00:48:55;4.03;;;3.25;;
23099;SDS011;53791;50.696;4.396;2023-04-23T00:51:23;5.20;;;2.98;;
23099;SDS011;53791;50.696;4.396;2023-04-23T00:53:51;2.77;;;2.45;;
23099;SDS011;53791;50.696;4.396;2023-04-23T00:56:18;3.77;;;3.10;;
23099;SDS011;53791;50.696;4.396;2023-04-23T00:58:49;2.80;;;2.45;;
23099;SDS011;53791;50.696;4.396;2023-04-23T01:01:18;2.65;;;2.10;;
23099;SDS011;53791;50.696;4.396;2023-04-23T01:03:47;2.45;;;2.02;;
23099;SDS011;53791;50.696;4.396;2023-04-23T01:06:17;3.77;;;2.33;;
23099;SDS011;53791;50.696;4.396;2023-04-23T01:08:45;2.47;;;2.10;;
23099;SDS011;53791;50.696;4.396;2023-04-23T01:11:13;4.47;;;2.77;;
23099;SDS011;53791;50.696;4.396;2023-04-23T01:13:41;7.20;;;3.10;;
23099;SDS011;53791;50.696;4.396;2023-04-23T01:16:09;4.15;;;2.70;;
23099;SDS011;53791;50.696;4.396;2023-04-23T01:18:37;2.37;;;2.00;;
23099;SDS011;53791;50.696;4.396;2023-04-23T01:21:05;7.95;;;3.62;;
23099;SDS011;53791;50.696;4.396;2023-04-23T01:23:34;4.20;;;2.72;;
23099;SDS011;53791;50.696;4.396;2023-04-23T01:26:01;3.70;;;2.58;;
23099;SDS011;53791;50.696;4.396;2023-04-23T01:28:29;2.67;;;2.27;;
23099;SDS011;53791;50.696;4.396;2023-04-23T01:30:57;7.37;;;3.35;;
23099;SDS011;53791;50.696;4.396;2023-04-23T01:33:26;2.60;;;2.30;;
23099;SDS011;53791;50.696;4.396;2023-04-23T01:35:54;3.22;;;2.42;;
23099;SDS011;53791;50.696;4.396;2023-04-23T01:38:22;5.42;;;2.75;;
23099;SDS011;53791;50.696;4.396;2023-04-23T01:40:50;4.45;;;2.50;;
23099;SDS011;53791;50.696;4.396;2023-04-23T01:43:18;2.47;;;2.12;;
23099;SDS011;53791;50.696;4.396;2023-04-23T01:45:46;4.75;;;2.35;;
23099;SDS011;53791;50.696;4.396;2023-04-23T01:48:14;2.83;;;2.45;;
23099;SDS011;53791;50.696;4.396;2023-04-23T01:50:41;3.20;;;2.12;;
23099;SDS011;53791;50.696;4.396;2023-04-23T01:53:09;2.35;;;1.65;;
23099;SDS011;53791;50.696;4.396;2023-04-23T01:55:37;4.72;;;2.83;;
23099;SDS011;53791;50.696;4.396;2023-04-23T01:58:05;4.30;;;2.35;;
23099;SDS011;53791;50.696;4.396;2023-04-23T02:00:33;3.20;;;2.40;;
23099;SDS011;53791;50.696;4.396;2023-04-23T02:03:00;2.60;;;2.30;;
23099;SDS011;53791;50.696;4.396;2023-04-23T02:05:28;2.37;;;1.82;;
23099;SDS011;53791;50.696;4.396;2023-04-23T02:07:55;2.70;;;2.33;;
23099;SDS011;53791;50.696;4.396;2023-04-23T02:10:23;7.62;;;2.45;;
23099;SDS011;53791;50.696;4.396;2023-04-23T02:12:50;5.60;;;2.67;;
23099;SDS011;53791;50.696;4.396;2023-04-23T02:15:18;2.77;;;2.02;;
23099;SDS011;53791;50.696;4.396;2023-04-23T02:17:46;2.67;;;2.20;;
23099;SDS011;53791;50.696;4.396;2023-04-23T02:20:15;2.62;;;2.00;;
23099;SDS011;53791;50.696;4.396;2023-04-23T02:22:44;3.15;;;2.40;;
23099;SDS011;53791;50.696;4.396;2023-04-23T02:25:12;2.45;;;2.15;;
23099;SDS011;53791;50.696;4.396;2023-04-23T02:27:41;3.12;;;2.50;;
23099;SDS011;53791;50.696;4.396;2023-04-23T02:30:09;2.52;;;1.95;;
23099;SDS011;53791;50.696;4.396;2023-04-23T02:32:37;3.92;;;2.70;;
23099;SDS011;53791;50.696;4.396;2023-04-23T02:35:06;4.50;;;3.17;;
23099;SDS011;53791;50.696;4.396;2023-04-23T02:37:35;5.60;;;2.80;;
23099;SDS011;53791;50.696;4.396;2023-04-23T02:40:03;2.40;;;1.90;;
23099;SDS011;53791;50.696;4.396;2023-04-23T02:42:31;2.27;;;1.67;;
23099;SDS011;53791;50.696;4.396;2023-04-23T02:44:58;2.92;;;2.40;;
23099;SDS011;53791;50.696;4.396;2023-04-23T02:47:26;2.12;;;1.67;;
23099;SDS011;53791;50.696;4.396;2023-04-23T02:49:54;3.37;;;2.65;;
23099;SDS011;53791;50.696;4.396;2023-04-23T02:52:22;3.70;;;2.30;;
23099;SDS011;53791;50.696;4.396;2023-04-23T02:54:50;2.27;;;1.87;;
23099;SDS011;53791;50.696;4.396;2023-04-23T02:57:17;4.10;;;2.62;;
23099;SDS011;53791;50.696;4.396;2023-04-23T02:59:46;2.27;;;1.80;;
23099;SDS011;53791;50.696;4.396;2023-04-23T03:02:14;2.90;;;2.15;;
23099;SDS011;53791;50.696;4.396;2023-04-23T03:04:42;3.17;;;2.42;;
23099;SDS011;53791;50.696;4.396;2023-04-23T03:07:10;4.28;;;2.70;;
23099;SDS011;53791;50.696;4.396;2023-04-23T03:09:38;3.10;;;2.20;;
23099;SDS011;53791;50.696;4.396;2023-04-23T03:12:07;3.17;;;1.75;;
23099;SDS011;53791;50.696;4.396;2023-04-23T03:14:34;8.33;;;2.35;;
23099;SDS011;53791;50.696;4.396;2023-04-23T03:17:02;2.92;;;2.42;;
23099;SDS011;53791;50.696;4.396;2023-04-23T03:19:29;2.72;;;2.22;;
23099;SDS011;53791;50.696;4.396;2023-04-23T03:21:57;5.45;;;2.35;;
23099;SDS011;53791;50.696;4.396;2023-04-23T03:24:24;3.90;;;2.17;;
23099;SDS011;53791;50.696;4.396;2023-04-23T03:26:53;2.30;;;1.87;;
23099;SDS011;53791;50.696;4.396;2023-04-23T03:29:20;2.50;;;1.95;;
23099;SDS011;53791;50.696;4.396;2023-04-23T03:31:48;2.02;;;1.47;;
23099;SDS011;53791;50.696;4.396;2023-04-23T03:34:15;3.25;;;2.12;;
23099;SDS011;53791;50.696;4.396;2023-04-23T03:36:43;2.30;;;1.85;;
23099;SDS011;53791;50.696;4.396;2023-04-23T03:39:12;4.00;;;2.25;;
23099;SDS011;53791;50.696;4.396;2023-04-23T03:41:40;3.70;;;2.00;;
23099;SDS011;53791;50.696;4.396;2023-04-23T03:44:08;3.33;;;2.08;;
23099;SDS011;53791;50.696;4.396;2023-04-23T03:46:35;3.17;;;2.10;;
23099;SDS011;53791;50.696;4.396;2023-04-23T03:49:03;2.62;;;2.05;;
23099;SDS011;53791;50.696;4.396;2023-04-23T03:51:30;3.60;;;2.90;;
23099;SDS011;53791;50.696;4.396;2023-04-23T03:53:57;3.77;;;2.75;;
23099;SDS011;53791;50.696;4.396;2023-04-23T03:56:25;3.95;;;3.05;;
23099;SDS011;53791;50.696;4.396;2023-04-23T03:58:52;2.52;;;2.10;;
23099;SDS011;53791;50.696;4.396;2023-04-23T04:01:20;2.55;;;2.02;;
23099;SDS011;53791;50.696;4.396;2023-04-23T04:03:48;5.17;;;2.10;;
23099;SDS011;53791;50.696;4.396;2023-04-23T04:06:15;2.67;;;1.85;;
23099;SDS011;53791;50.696;4.396;2023-04-23T04:08:43;2.20;;;1.65;;
23099;SDS011;53791;50.696;4.396;2023-04-23T04:11:10;3.60;;;2.00;;
23099;SDS011;53791;50.696;4.396;2023-04-23T04:13:38;3.20;;;2.22;;
23099;SDS011;53791;50.696;4.396;2023-04-23T04:16:08;2.50;;;1.90;;
23099;SDS011;53791;50.696;4.396;2023-04-23T04:18:36;3.55;;;2.35;;
23099;SDS011;53791;50.696;4.396;2023-04-23T04:21:04;3.22;;;2.02;;
23099;SDS011;53791;50.696;4.396;2023-04-23T04:23:32;3.67;;;2.75;;
23099;SDS011;53791;50.696;4.396;2023-04-23T04:25:59;2.60;;;2.25;;
23099;SDS011;53791;50.696;4.396;2023-04-23T04:28:28;3.98;;;2.10;;
23099;SDS011;53791;50.696;4.396;2023-04-23T04:30:57;2.00;;;1.60;;
23099;SDS011;53791;50.696;4.396;2023-04-23T04:33:25;3.08;;;1.60;;
23099;SDS011;53791;50.696;4.396;2023-04-23T04:35:55;4.05;;;1.87;;
23099;SDS011;53791;50.696;4.396;2023-04-23T04:38:24;3.08;;;1.92;;
23099;SDS011;53791;50.696;4.396;2023-04-23T04:40:54;2.27;;;1.77;;
23099;SDS011;53791;50.696;4.396;2023-04-23T04:43:24;3.12;;;2.00;;
23099;SDS011;53791;50.696;4.396;2023-04-23T04:45:51;4.40;;;1.95;;
23099;SDS011;53791;50.696;4.396;2023-04-23T04:48:19;2.83;;;2.00;;
23099;SDS011;53791;50.696;4.396;2023-04-23T04:50:47;3.45;;;1.87;;
23099;SDS011;53791;50.696;4.396;2023-04-23T04:53:14;2.47;;;1.72;;
23099;SDS011;53791;50.696;4.396;2023-04-23T04:55:42;9.60;;;2.22;;
23099;SDS011;53791;50.696;4.396;2023-04-23T04:58:09;2.72;;;1.60;;
23099;SDS011;53791;50.696;4.396;2023-04-23T05:00:37;1.92;;;1.42;;
23099;SDS011;53791;50.696;4.396;2023-04-23T05:03:04;2.70;;;1.85;;
23099;SDS011;53791;50.696;4.396;2023-04-23T05:05:32;1.95;;;1.60;;
23099;SDS011;53791;50.696;4.396;2023-04-23T05:08:00;2.90;;;2.00;;
23099;SDS011;53791;50.696;4.396;2023-04-23T05:10:27;2.35;;;1.65;;
23099;SDS011;53791;50.696;4.396;2023-04-23T05:12:55;4.35;;;2.25;;
23099;SDS011;53791;50.696;4.396;2023-04-23T05:15:23;1.90;;;1.45;;
23099;SDS011;53791;50.696;4.396;2023-04-23T05:17:51;2.00;;;1.52;;
23099;SDS011;53791;50.696;4.396;2023-04-23T05:20:19;2.70;;;1.70;;
23099;SDS011;53791;50.696;4.396;2023-04-23T05:22:47;1.82;;;1.42;;
23099;SDS011;53791;50.696;4.396;2023-04-23T05:25:15;2.10;;;1.50;;
23099;SDS011;53791;50.696;4.396;2023-04-23T05:27:42;2.25;;;1.60;;
23099;SDS011;53791;50.696;4.396;2023-04-23T05:30:10;2.77;;;1.98;;
23099;SDS011;53791;50.696;4.396;2023-04-23T05:32:38;2.20;;;1.75;;
23099;SDS011;53791;50.696;4.396;2023-04-23T05:35:05;3.15;;;2.12;;
23099;SDS011;53791;50.696;4.396;2023-04-23T05:37:33;2.10;;;1.55;;
23099;SDS011;53791;50.696;4.396;2023-04-23T05:40:01;3.52;;;2.12;;
23099;SDS011;53791;50.696;4.396;2023-04-23T05:42:30;2.22;;;1.60;;
23099;SDS011;53791;50.696;4.396;2023-04-23T05:44:58;2.15;;;1.62;;
23099;SDS011;53791;50.696;4.396;2023-04-23T05:47:25;1.60;;;1.12;;
23099;SDS011;53791;50.696;4.396;2023-04-23T05:49:54;2.30;;;1.60;;
23099;SDS011;53791;50.696;4.396;2023-04-23T05:52:24;2.47;;;1.60;;
23099;SDS011;53791;50.696;4.396;2023-04-23T05:54:51;2.80;;;1.80;;
23099;SDS011;53791;50.696;4.396;2023-04-23T05:57:19;2.00;;;1.60;;
23099;SDS011;53791;50.696;4.396;2023-04-23T05:59:47;2.17;;;1.80;;
23099;SDS011;53791;50.696;4.396;2023-04-23T06:02:14;2.05;;;1.45;;
23099;SDS011;53791;50.696;4.396;2023-04-23T06:04:42;2.47;;;1.62;;
23099;SDS011;53791;50.696;4.396;2023-04-23T06:07:09;1.90;;;1.42;;
23099;SDS011;53791;50.696;4.396;2023-04-23T06:09:37;3.10;;;1.90;;
23099;SDS011;53791;50.696;4.396;2023-04-23T06:12:04;2.50;;;1.82;;
23099;SDS011;53791;50.696;4.396;2023-04-23T06:14:32;3.45;;;2.15;;
23099;SDS011;53791;50.696;4.396;2023-04-23T06:17:00;2.98;;;1.90;;
23099;SDS011;53791;50.696;4.396;2023-04-23T06:19:27;2.05;;;1.75;;
23099;SDS011;53791;50.696;4.396;2023-04-23T06:21:55;2.27;;;1.72;;
23099;SDS011;53791;50.696;4.396;2023-04-23T06:24:22;2.27;;;1.70;;
23099;SDS011;53791;50.696;4.396;2023-04-23T06:26:50;2.50;;;1.87;;
23099;SDS011;53791;50.696;4.396;2023-04-23T06:29:17;2.10;;;1.72;;
23099;SDS011;53791;50.696;4.396;2023-04-23T06:31:45;3.00;;;2.00;;
23099;SDS011;53791;50.696;4.396;2023-04-23T06:34:15;1.95;;;1.52;;
23099;SDS011;53791;50.696;4.396;2023-04-23T06:36:42;2.58;;;1.92;;
23099;SDS011;53791;50.696;4.396;2023-04-23T06:39:10;2.27;;;1.70;;
23099;SDS011;53791;50.696;4.396;2023-04-23T06:41:37;2.52;;;2.00;;
23099;SDS011;53791;50.696;4.396;2023-04-23T06:44:05;2.33;;;2.08;;
23099;SDS011;53791;50.696;4.396;2023-04-23T06:46:32;3.75;;;2.27;;
23099;SDS011;53791;50.696;4.396;2023-04-23T06:49:00;4.75;;;1.82;;
23099;SDS011;53791;50.696;4.396;2023-04-23T06:51:27;2.10;;;1.70;;
23099;SDS011;53791;50.696;4.396;2023-04-23T06:53:56;3.33;;;2.35;;
23099;SDS011;53791;50.696;4.396;2023-04-23T06:56:24;1.90;;;1.60;;
23099;SDS011;53791;50.696;4.396;2023-04-23T06:58:52;2.00;;;1.60;;
23099;SDS011;53791;50.696;4.396;2023-04-23T07:01:19;3.00;;;2.17;;
23099;SDS011;53791;50.696;4.396;2023-04-23T07:03:50;2.60;;;1.82;;
23099;SDS011;53791;50.696;4.396;2023-04-23T07:06:22;8.30;;;2.00;;
23099;SDS011;53791;50.696;4.396;2023-04-23T07:08:50;2.05;;;1.45;;
23099;SDS011;53791;50.696;4.396;2023-04-23T07:11:17;2.27;;;1.70;;
23099;SDS011;53791;50.696;4.396;2023-04-23T07:13:45;2.12;;;1.52;;
23099;SDS011;53791;50.696;4.396;2023-04-23T07:16:12;3.87;;;2.22;;
23099;SDS011;53791;50.696;4.396;2023-04-23T07:18:40;2.20;;;1.65;;
23099;SDS011;53791;50.696;4.396;2023-04-23T07:21:08;4.42;;;1.52;;
23099;SDS011;53791;50.696;4.396;2023-04-23T07:23:35;5.20;;;2.12;;
23099;SDS011;53791;50.696;4.396;2023-04-23T07:26:03;2.05;;;1.45;;
23099;SDS011;53791;50.696;4.396;2023-04-23T07:28:30;2.00;;;1.65;;
23099;SDS011;53791;50.696;4.396;2023-04-23T07:30:58;6.85;;;2.05;;
23099;SDS011;53791;50.696;4.396;2023-04-23T07:33:26;2.37;;;1.85;;
23099;SDS011;53791;50.696;4.396;2023-04-23T07:35:53;2.40;;;1.77;;
23099;SDS011;53791;50.696;4.396;2023-04-23T07:38:21;4.67;;;1.60;;
23099;SDS011;53791;50.696;4.396;2023-04-23T07:40:48;2.90;;;2.00;;
23099;SDS011;53791;50.696;4.396;2023-04-23T07:43:16;2.47;;;1.62;;
23099;SDS011;53791;50.696;4.396;2023-04-23T07:45:44;3.65;;;2.02;;
23099;SDS011;53791;50.696;4.396;2023-04-23T07:48:11;1.90;;;1.50;;
23099;SDS011;53791;50.696;4.396;2023-04-23T07:50:39;2.08;;;1.62;;
23099;SDS011;53791;50.696;4.396;2023-04-23T07:53:09;1.90;;;1.40;;
23099;SDS011;53791;50.696;4.396;2023-04-23T07:55:37;2.25;;;1.75;;
23099;SDS011;53791;50.696;4.396;2023-04-23T07:58:04;2.20;;;1.60;;
23099;SDS011;53791;50.696;4.396;2023-04-23T08:00:32;1.80;;;1.30;;
23099;SDS011;53791;50.696;4.396;2023-04-23T08:02:59;1.92;;;1.42;;
23099;SDS011;53791;50.696;4.396;2023-04-23T08:05:27;2.90;;;1.85;;
23099;SDS011;53791;50.696;4.396;2023-04-23T08:07:54;3.42;;;2.17;;
23099;SDS011;53791;50.696;4.396;2023-04-23T08:10:22;3.30;;;2.00;;
23099;SDS011;53791;50.696;4.396;2023-04-23T08:12:50;3.27;;;2.12;;
23099;SDS011;53791;50.696;4.396;2023-04-23T08:15:17;2.00;;;1.50;;
23099;SDS011;53791;50.696;4.396;2023-04-23T08:17:45;2.42;;;1.52;;
23099;SDS011;53791;50.696;4.396;2023-04-23T08:20:12;2.00;;;1.35;;
23099;SDS011;53791;50.696;4.396;2023-04-23T08:22:40;3.00;;;2.05;;
23099;SDS011;53791;50.696;4.396;2023-04-23T08:25:07;2.27;;;1.62;;
23099;SDS011;53791;50.696;4.396;2023-04-23T08:27:35;5.47;;;2.22;;
23099;SDS011;53791;50.696;4.396;2023-04-23T08:30:03;3.05;;;1.87;;
23099;SDS011;53791;50.696;4.396;2023-04-23T08:32:32;2.50;;;1.27;;
23099;SDS011;53791;50.696;4.396;2023-04-23T08:35:06;2.25;;;1.55;;
23099;SDS011;53791;50.696;4.396;2023-04-23T08:37:36;2.25;;;1.50;;
23099;SDS011;53791;50.696;4.396;2023-04-23T08:40:05;4.37;;;2.15;;
23099;SDS011;53791;50.696;4.396;2023-04-23T08:42:37;2.22;;;1.40;;
23099;SDS011;53791;50.696;4.396;2023-04-23T08:45:10;2.05;;;1.50;;
23099;SDS011;53791;50.696;4.396;2023-04-23T08:47:41;1.98;;;1.17;;
23099;SDS011;53791;50.696;4.396;2023-04-23T08:50:09;3.35;;;1.62;;
23099;SDS011;53791;50.696;4.396;2023-04-23T08:52:41;3.25;;;1.62;;
23099;SDS011;53791;50.696;4.396;2023-04-23T08:55:12;2.65;;;1.57;;
23099;SDS011;53791;50.696;4.396;2023-04-23T08:57:40;4.22;;;2.10;;
23099;SDS011;53791;50.696;4.396;2023-04-23T09:00:08;1.80;;;1.27;;
23099;SDS011;53791;50.696;4.396;2023-04-23T09:02:38;2.45;;;1.70;;
23099;SDS011;53791;50.696;4.396;2023-04-23T09:05:07;3.58;;;2.05;;
23099;SDS011;53791;50.696;4.396;2023-04-23T09:07:35;2.47;;;1.67;;
23099;SDS011;53791;50.696;4.396;2023-04-23T09:10:03;2.10;;;1.65;;
23099;SDS011;53791;50.696;4.396;2023-04-23T09:12:34;2.90;;;1.67;;
23099;SDS011;53791;50.696;4.396;2023-04-23T09:15:02;1.70;;;1.20;;
23099;SDS011;53791;50.696;4.396;2023-04-23T09:17:32;2.17;;;1.62;;
23099;SDS011;53791;50.696;4.396;2023-04-23T09:20:02;3.25;;;1.70;;
23099;SDS011;53791;50.696;4.396;2023-04-23T09:22:41;1.85;;;1.40;;
23099;SDS011;53791;50.696;4.396;2023-04-23T09:25:13;1.80;;;1.15;;
23099;SDS011;53791;50.696;4.396;2023-04-23T09:27:42;3.70;;;1.90;;
23099;SDS011;53791;50.696;4.396;2023-04-23T09:30:10;2.08;;;1.32;;
23099;SDS011;53791;50.696;4.396;2023-04-23T09:32:39;2.45;;;1.35;;
23099;SDS011;53791;50.696;4.396;2023-04-23T09:35:14;2.62;;;1.82;;
23099;SDS011;53791;50.696;4.396;2023-04-23T09:37:46;1.85;;;1.40;;
23099;SDS011;53791;50.696;4.396;2023-04-23T09:40:16;1.70;;;1.20;;
23099;SDS011;53791;50.696;4.396;2023-04-23T09:42:48;1.80;;;1.35;;
23099;SDS011;53791;50.696;4.396;2023-04-23T09:45:20;1.65;;;1.15;;
23099;SDS011;53791;50.696;4.396;2023-04-23T09:47:50;3.75;;;1.80;;
23099;SDS011;53791;50.696;4.396;2023-04-23T09:50:35;1.75;;;1.27;;
23099;SDS011;53791;50.696;4.396;2023-04-23T09:53:08;1.75;;;1.12;;
23099;SDS011;53791;50.696;4.396;2023-04-23T09:55:36;2.55;;;1.62;;
23099;SDS011;53791;50.696;4.396;2023-04-23T09:58:10;2.02;;;1.17;;
23099;SDS011;53791;50.696;4.396;2023-04-23T10:00:40;2.50;;;1.35;;
23099;SDS011;53791;50.696;4.396;2023-04-23T10:03:08;1.87;;;1.22;;
23099;SDS011;53791;50.696;4.396;2023-04-23T10:05:41;4.60;;;2.05;;
23099;SDS011;53791;50.696;4.396;2023-04-23T10:08:07;2.12;;;1.40;;
23099;SDS011;53791;50.696;4.396;2023-04-23T10:10:37;4.50;;;1.72;;
23099;SDS011;53791;50.696;4.396;2023-04-23T10:13:06;5.28;;;1.65;;
23099;SDS011;53791;50.696;4.396;2023-04-23T10:15:35;1.90;;;1.27;;
23099;SDS011;53791;50.696;4.396;2023-04-23T10:18:03;2.50;;;1.52;;
23099;SDS011;53791;50.696;4.396;2023-04-23T10:20:32;2.10;;;1.30;;
23099;SDS011;53791;50.696;4.396;2023-04-23T10:23:00;1.57;;;1.05;;
23099;SDS011;53791;50.696;4.396;2023-04-23T10:25:28;5.70;;;1.12;;
23099;SDS011;53791;50.696;4.396;2023-04-23T10:27:56;2.50;;;1.37;;
23099;SDS011;53791;50.696;4.396;2023-04-23T10:30:26;2.50;;;1.35;;
23099;SDS011;53791;50.696;4.396;2023-04-23T10:32:54;2.47;;;1.32;;
23099;SDS011;53791;50.696;4.396;2023-04-23T10:35:24;1.60;;;1.00;;
23099;SDS011;53791;50.696;4.396;2023-04-23T10:37:52;1.50;;;0.98;;
23099;SDS011;53791;50.696;4.396;2023-04-23T10:40:23;2.62;;;1.12;;
23099;SDS011;53791;50.696;4.396;2023-04-23T10:42:51;1.75;;;1.12;;
23099;SDS011;53791;50.696;4.396;2023-04-23T10:45:21;1.95;;;1.20;;
23099;SDS011;53791;50.696;4.396;2023-04-23T10:47:48;8.95;;;1.98;;
23099;SDS011;53791;50.696;4.396;2023-04-23T10:50:26;1.70;;;1.10;;
23099;SDS011;53791;50.696;4.396;2023-04-23T10:52:55;1.60;;;1.02;;
23099;SDS011;53791;50.696;4.396;2023-04-23T10:55:24;2.50;;;1.42;;
23099;SDS011;53791;50.696;4.396;2023-04-23T10:58:02;2.33;;;1.45;;
23099;SDS011;53791;50.696;4.396;2023-04-23T11:00:43;1.65;;;1.10;;
23099;SDS011;53791;50.696;4.396;2023-04-23T11:06:07;2.50;;;1.25;;
23099;SDS011;53791;50.696;4.396;2023-04-23T11:08:37;2.02;;;1.12;;
23099;SDS011;53791;50.696;4.396;2023-04-23T11:11:07;1.92;;;1.15;;
23099;SDS011;53791;50.696;4.396;2023-04-23T11:13:34;2.87;;;1.55;;
23099;SDS011;53791;50.696;4.396;2023-04-23T11:16:17;3.05;;;1.70;;
23099;SDS011;53791;50.696;4.396;2023-04-23T11:19:01;1.40;;;0.80;;
23099;SDS011;53791;50.696;4.396;2023-04-23T11:30:38;1.60;;;1.07;;
23099;SDS011;53791;50.696;4.396;2023-04-23T11:33:05;1.98;;;1.25;;
23099;SDS011;53791;50.696;4.396;2023-04-23T11:35:33;1.60;;;0.95;;
23099;SDS011;53791;50.696;4.396;2023-04-23T11:38:07;1.62;;;1.02;;
23099;SDS011;53791;50.696;4.396;2023-04-23T11:40:36;1.82;;;1.10;;
23099;SDS011;53791;50.696;4.396;2023-04-23T11:43:05;2.05;;;1.57;;
23099;SDS011;53791;50.696;4.396;2023-04-23T11:48:36;2.22;;;1.82;;
23099;SDS011;53791;50.696;4.396;2023-04-23T11:51:04;4.50;;;2.98;;
23099;SDS011;53791;50.696;4.396;2023-04-23T11:53:32;3.27;;;2.98;;
23099;SDS011;53791;50.696;4.396;2023-04-23T11:56:00;2.72;;;2.52;;
23099;SDS011;53791;50.696;4.396;2023-04-23T11:58:29;3.67;;;3.37;;
23099;SDS011;53791;50.696;4.396;2023-04-23T12:00:57;4.25;;;3.40;;
23099;SDS011;53791;50.696;4.396;2023-04-23T12:03:26;3.90;;;3.33;;
23099;SDS011;53791;50.696;4.396;2023-04-23T12:05:54;2.83;;;2.62;;
23099;SDS011;53791;50.696;4.396;2023-04-23T12:08:22;4.05;;;3.67;;
23099;SDS011;53791;50.696;4.396;2023-04-23T12:10:51;2.98;;;2.67;;
23099;SDS011;53791;50.696;4.396;2023-04-23T12:13:23;2.52;;;2.33;;
23099;SDS011;53791;50.696;4.396;2023-04-23T12:15:55;2.50;;;2.30;;
23099;SDS011;53791;50.696;4.396;2023-04-23T12:21:22;2.00;;;1.80;;
23099;SDS011;53791;50.696;4.396;2023-04-23T12:23:50;1.92;;;1.57;;
23099;SDS011;53791;50.696;4.396;2023-04-23T12:26:18;3.00;;;1.70;;
23099;SDS011;53791;50.696;4.396;2023-04-23T12:28:46;2.70;;;1.80;;
23099;SDS011;53791;50.696;4.396;2023-04-23T12:31:28;2.40;;;1.75;;
23099;SDS011;53791;50.696;4.396;2023-04-23T12:36:30;3.40;;;2.42;;
23099;SDS011;53791;50.696;4.396;2023-04-23T12:41:53;2.92;;;1.87;;
23099;SDS011;53791;50.696;4.396;2023-04-23T12:44:20;2.35;;;1.80;;
23099;SDS011;53791;50.696;4.396;2023-04-23T12:46:48;2.10;;;1.50;;
23099;SDS011;53791;50.696;4.396;2023-04-23T12:49:17;2.12;;;1.55;;
23099;SDS011;53791;50.696;4.396;2023-04-23T12:51:45;2.00;;;1.60;;
23099;SDS011;53791;50.696;4.396;2023-04-23T12:54:12;2.67;;;2.25;;
23099;SDS011;53791;50.696;4.396;2023-04-23T12:56:40;2.60;;;2.00;;
23099;SDS011;53791;50.696;4.396;2023-04-23T12:59:08;1.90;;;1.52;;
23099;SDS011;53791;50.696;4.396;2023-04-23T13:01:35;2.47;;;1.77;;
23099;SDS011;53791;50.696;4.396;2023-04-23T13:04:03;2.00;;;1.72;;
23099;SDS011;53791;50.696;4.396;2023-04-23T13:06:31;3.30;;;2.10;;
23099;SDS011;53791;50.696;4.396;2023-04-23T13:08:58;2.37;;;1.87;;
23099;SDS011;53791;50.696;4.396;2023-04-23T13:11:27;2.20;;;1.50;;
23099;SDS011;53791;50.696;4.396;2023-04-23T13:13:55;2.37;;;1.50;;
23099;SDS011;53791;50.696;4.396;2023-04-23T13:16:22;2.35;;;1.67;;
23099;SDS011;53791;50.696;4.396;2023-04-23T13:18:50;2.15;;;1.65;;
23099;SDS011;53791;50.696;4.396;2023-04-23T13:21:18;6.55;;;2.00;;
23099;SDS011;53791;50.696;4.396;2023-04-23T13:23:45;2.42;;;1.65;;
23099;SDS011;53791;50.696;4.396;2023-04-23T13:26:13;2.00;;;1.42;;
23099;SDS011;53791;50.696;4.396;2023-04-23T13:28:41;2.37;;;1.57;;
23099;SDS011;53791;50.696;4.396;2023-04-23T13:31:09;2.67;;;2.10;;
23099;SDS011;53791;50.696;4.396;2023-04-23T13:33:39;2.00;;;1.40;;
23099;SDS011;53791;50.696;4.396;2023-04-23T13:36:07;2.22;;;1.65;;
23099;SDS011;53791;50.696;4.396;2023-04-23T13:38:35;2.05;;;1.70;;
23099;SDS011;53791;50.696;4.396;2023-04-23T13:41:03;2.20;;;1.80;;
23099;SDS011;53791;50.696;4.396;2023-04-23T13:43:30;20.88;;;2.77;;
23099;SDS011;53791;50.696;4.396;2023-04-23T13:46:05;2.25;;;1.90;;
23099;SDS011;53791;50.696;4.396;2023-04-23T13:48:32;2.00;;;1.50;;
23099;SDS011;53791;50.696;4.396;2023-04-23T13:51:00;2.08;;;1.40;;
23099;SDS011;53791;50.696;4.396;2023-04-23T13:53:28;2.37;;;1.70;;
23099;SDS011;53791;50.696;4.396;2023-04-23T13:55:55;2.33;;;1.50;;
23099;SDS011;53791;50.696;4.396;2023-04-23T13:58:25;1.80;;;1.32;;
23099;SDS011;53791;50.696;4.396;2023-04-23T14:00:52;1.90;;;1.50;;
23099;SDS011;53791;50.696;4.396;2023-04-23T14:03:20;1.90;;;1.40;;
23099;SDS011;53791;50.696;4.396;2023-04-23T14:05:47;2.05;;;1.65;;
23099;SDS011;53791;50.696;4.396;2023-04-23T14:08:15;2.83;;;2.08;;
23099;SDS011;53791;50.696;4.396;2023-04-23T14:10:42;2.45;;;1.75;;
23099;SDS011;53791;50.696;4.396;2023-04-23T14:13:10;2.83;;;2.00;;
23099;SDS011;53791;50.696;4.396;2023-04-23T14:15:37;2.62;;;1.60;;
23099;SDS011;53791;50.696;4.396;2023-04-23T14:18:06;1.90;;;1.60;;
23099;SDS011;53791;50.696;4.396;2023-04-23T14:20:34;2.65;;;1.87;;
23099;SDS011;53791;50.696;4.396;2023-04-23T14:23:02;1.80;;;1.40;;
23099;SDS011;53791;50.696;4.396;2023-04-23T14:26:03;2.40;;;1.82;;
23099;SDS011;53791;50.696;4.396;2023-04-23T14:28:33;2.08;;;1.40;;
23099;SDS011;53791;50.696;4.396;2023-04-23T14:31:02;2.55;;;1.82;;
23099;SDS011;53791;50.696;4.396;2023-04-23T14:33:30;1.90;;;1.45;;
23099;SDS011;53791;50.696;4.396;2023-04-23T14:35:57;2.10;;;1.40;;
23099;SDS011;53791;50.696;4.396;2023-04-23T14:38:25;2.22;;;1.00;;
23099;SDS011;53791;50.696;4.396;2023-04-23T14:40:54;2.22;;;1.30;;
23099;SDS011;53791;50.696;4.396;2023-04-23T14:43:22;1.80;;;1.05;;
23099;SDS011;53791;50.696;4.396;2023-04-23T14:45:50;2.30;;;1.20;;
23099;SDS011;53791;50.696;4.396;2023-04-23T14:48:18;2.00;;;1.47;;
23099;SDS011;53791;50.696;4.396;2023-04-23T14:50:47;1.82;;;1.30;;
23099;SDS011;53791;50.696;4.396;2023-04-23T14:53:16;1.70;;;1.20;;
23099;SDS011;53791;50.696;4.396;2023-04-23T14:55:44;1.70;;;1.10;;
23099;SDS011;53791;50.696;4.396;2023-04-23T14:58:13;2.15;;;1.40;;
23099;SDS011;53791;50.696;4.396;2023-04-23T15:00:40;1.90;;;1.50;;
23099;SDS011;53791;50.696;4.396;2023-04-23T15:03:09;1.98;;;1.20;;
23099;SDS011;53791;50.696;4.396;2023-04-23T15:05:37;2.02;;;1.22;;
23099;SDS011;53791;50.696;4.396;2023-04-23T15:08:04;5.00;;;1.92;;
23099;SDS011;53791;50.696;4.396;2023-04-23T15:10:37;1.70;;;1.10;;
23099;SDS011;53791;50.696;4.396;2023-04-23T15:13:07;1.95;;;1.20;;
23099;SDS011;53791;50.696;4.396;2023-04-23T15:18:12;1.55;;;0.93;;
23099;SDS011;53791;50.696;4.396;2023-04-23T15:20:45;3.17;;;1.60;;
23099;SDS011;53791;50.696;4.396;2023-04-23T15:23:14;1.50;;;0.90;;